createdAt,value
2022-08-16T00:02:32.373Z,46.96
2022-08-16T00:05:00.161Z,47.02
2022-08-16T00:07:29.806Z,46.83
2022-08-16T00:10:02.211Z,47.35
2022-08-16T00:12:30.722Z,47.17
2022-08-16T00:15:05.448Z,47.72
2022-08-16T00:17:56.290Z,47.60
2022-08-16T00:20:31.187Z,47.93
2022-08-16T00:23:02.461Z,48.20
2022-08-16T00:26:33.463Z,48.99
2022-08-16T00:28:18.826Z,49.31
2022-08-16T00:30:45.693Z,49.49
2022-08-16T00:33:18.685Z,49.10
2022-08-16T00:35:50.057Z,49.33
2022-08-16T00:38:41.142Z,49.57
2022-08-16T00:41:05.999Z,49.28
2022-08-16T00:43:42.852Z,49.63
2022-08-16T00:46:34.032Z,49.94
2022-08-16T00:48:57.158Z,49.85
2022-08-16T00:51:25.781Z,49.71
2022-08-16T00:53:59.445Z,49.30
2022-08-16T00:56:56.660Z,49.46
2022-08-16T00:59:24.992Z,49.09
2022-08-16T01:01:55.012Z,48.60
2022-08-16T01:04:30.032Z,48.52
2022-08-16T01:07:02.813Z,48.57
2022-08-16T01:09:37.553Z,48.12
2022-08-16T01:12:10.870Z,48.30
2022-08-16T01:14:57.442Z,47.90
2022-08-16T01:17:24.807Z,47.82
2022-08-16T01:19:57.023Z,47.76
2022-08-16T01:22:47.008Z,48.21
2022-08-16T01:25:34.032Z,48.13
2022-08-16T01:28:07.502Z,48.18
2022-08-16T01:30:50.011Z,48.15
2022-08-16T01:33:19.240Z,48.56
2022-08-16T01:36:11.596Z,48.47
2022-08-16T01:38:53.112Z,48.73
2022-08-16T01:41:30.758Z,48.53
2022-08-16T01:44:01.630Z,48.47
2022-08-16T01:46:40.049Z,48.51
2022-08-16T01:49:42.777Z,48.68
2022-08-16T01:52:28.091Z,48.79
2022-08-16T01:55:18.119Z,48.55
2022-08-16T01:57:53.309Z,48.70
2022-08-16T02:00:21.617Z,48.74
2022-08-16T02:02:57.707Z,48.53
2022-08-16T02:05:24.453Z,48.53
2022-08-16T02:07:53.654Z,48.75
2022-08-16T02:10:22.176Z,48.54
2022-08-16T02:12:55.803Z,48.52
2022-08-16T02:15:35.654Z,48.47
2022-08-16T02:18:12.739Z,48.70
2022-08-16T02:20:42.472Z,48.71
2022-08-16T02:23:09.967Z,48.85
2022-08-16T02:25:52.077Z,48.92
2022-08-16T02:28:23.613Z,48.83
2022-08-16T02:30:54.558Z,49.09
2022-08-16T02:33:24.359Z,49.32
2022-08-16T02:35:59.987Z,48.65
2022-08-16T02:38:32.188Z,48.64
2022-08-16T02:41:01.871Z,48.72
2022-08-16T02:43:33.151Z,49.05
2022-08-16T02:46:07.443Z,49.08
2022-08-16T02:48:38.480Z,49.27
2022-08-16T02:51:11.266Z,49.09
2022-08-16T02:53:44.797Z,49.28
2022-08-16T02:56:15.280Z,49.17
2022-08-16T02:58:44.406Z,49.46
2022-08-16T03:01:25.114Z,49.36
2022-08-16T03:04:29.001Z,49.52
2022-08-16T03:06:56.882Z,49.44
2022-08-16T03:09:37.296Z,49.41
2022-08-16T03:12:05.376Z,49.32
2022-08-16T03:14:35.369Z,49.61
2022-08-16T03:17:04.903Z,49.78
2022-08-16T03:19:48.828Z,49.67
2022-08-16T03:22:28.223Z,49.85
2022-08-16T03:25:00.835Z,49.79
2022-08-16T03:27:36.029Z,49.98
2022-08-16T03:30:29.264Z,50.26
2022-08-16T03:32:59.330Z,49.93
2022-08-16T03:35:34.676Z,49.77
2022-08-16T03:38:33.092Z,49.83
2022-08-16T03:41:05.435Z,49.86
2022-08-16T03:43:54.651Z,49.84
2022-08-16T03:46:47.861Z,49.99
2022-08-16T03:49:13.453Z,50.37
2022-08-16T03:51:43.937Z,50.90
2022-08-16T03:54:20.317Z,50.83
2022-08-16T03:56:56.844Z,51.06
2022-08-16T03:59:24.812Z,51.63
2022-08-16T04:01:56.757Z,51.34
2022-08-16T04:04:33.302Z,51.39
2022-08-16T04:07:04.264Z,51.35
2022-08-16T04:09:38.791Z,51.66
2022-08-16T04:12:53.742Z,51.83
2022-08-16T04:15:07.994Z,51.87
2022-08-16T04:17:42.177Z,51.76
2022-08-16T04:20:31.204Z,51.29
2022-08-16T04:22:59.184Z,51.88
2022-08-16T04:25:29.166Z,51.90
2022-08-16T04:27:56.910Z,51.27
2022-08-16T04:30:32.478Z,51.30
2022-08-16T04:33:04.432Z,51.04
2022-08-16T04:35:39.496Z,51.13
2022-08-16T04:38:21.202Z,50.88
2022-08-16T04:40:51.575Z,51.18
2022-08-16T04:43:23.732Z,51.03
2022-08-16T04:46:00.148Z,51.02
2022-08-16T04:48:33.937Z,51.07
2022-08-16T04:51:12.118Z,51.10
2022-08-16T04:53:50.777Z,50.96
2022-08-16T04:56:19.958Z,50.63
2022-08-16T04:58:47.751Z,50.42
2022-08-16T05:01:20.362Z,50.20
2022-08-16T05:04:01.011Z,50.41
2022-08-16T05:06:45.009Z,50.21
2022-08-16T05:09:25.669Z,50.28
2022-08-16T05:11:58.215Z,50.14
2022-08-16T05:14:42.305Z,50.03
2022-08-16T05:17:14.536Z,49.82
2022-08-16T05:19:46.533Z,49.54
2022-08-16T05:22:24.940Z,49.59
2022-08-16T05:24:56.716Z,49.60
2022-08-16T05:27:24.065Z,49.57
2022-08-16T05:29:57.877Z,49.23
2022-08-16T05:32:32.650Z,48.90
2022-08-16T05:35:11.004Z,49.26
2022-08-16T05:37:43.468Z,49.23
2022-08-16T05:40:14.377Z,48.98
2022-08-16T05:42:47.692Z,48.56
2022-08-16T05:45:21.379Z,47.98
2022-08-16T05:48:00.120Z,48.05
2022-08-16T05:50:37.645Z,48.02
2022-08-16T05:53:08.746Z,47.98
2022-08-16T05:55:46.461Z,47.65
2022-08-16T05:58:31.705Z,47.44
2022-08-16T06:01:00.764Z,47.18
2022-08-16T06:03:34.258Z,46.93
2022-08-16T06:06:08.514Z,46.63
2022-08-16T06:08:42.087Z,46.97
2022-08-16T06:11:13.460Z,46.59
2022-08-16T06:13:43.479Z,46.50
2022-08-16T06:16:19.390Z,46.04
2022-08-16T06:18:53.523Z,46.01
2022-08-16T06:21:22.706Z,45.57
2022-08-16T06:23:57.165Z,45.19
2022-08-16T06:26:37.022Z,45.68
2022-08-16T06:29:07.836Z,45.47
2022-08-16T06:31:49.145Z,45.26
2022-08-16T06:34:56.044Z,45.01
2022-08-16T06:37:12.251Z,44.86
2022-08-16T06:39:49.596Z,44.97
2022-08-16T06:42:47.027Z,44.22
2022-08-16T06:45:37.996Z,44.59
2022-08-16T06:48:20.215Z,44.33
2022-08-16T06:51:00.363Z,43.87
2022-08-16T06:53:27.426Z,43.35
2022-08-16T06:56:14.228Z,43.87
2022-08-16T06:59:13.133Z,43.35
2022-08-16T07:01:54.307Z,43.03
2022-08-16T07:04:32.669Z,43.02
2022-08-16T07:07:11.391Z,43.35
2022-08-16T07:09:41.244Z,42.82
2022-08-16T07:12:09.281Z,43.15
2022-08-16T07:14:41.231Z,43.09
2022-08-16T07:17:11.510Z,42.61
2022-08-16T07:20:02.963Z,42.55
2022-08-16T07:22:52.533Z,42.21
2022-08-16T07:25:27.952Z,42.20
2022-08-16T07:27:54.977Z,42.41
2022-08-16T07:30:39.470Z,42.72
2022-08-16T07:33:52.576Z,42.25
2022-08-16T07:36:09.775Z,42.19
2022-08-16T07:38:44.315Z,41.14
2022-08-16T07:41:14.935Z,40.76
2022-08-16T07:43:49.236Z,40.32
2022-08-16T07:46:39.277Z,39.30
2022-08-16T07:49:23.947Z,39.24
2022-08-16T07:51:54.519Z,39.58
2022-08-16T07:54:31.950Z,39.60
2022-08-16T07:57:03.582Z,39.47
2022-08-16T07:59:42.685Z,39.32
2022-08-16T08:02:20.437Z,40.30
2022-08-16T08:04:51.937Z,39.38
2022-08-16T08:07:19.227Z,39.78
2022-08-16T08:09:49.243Z,38.93
2022-08-16T08:12:32.221Z,38.92
2022-08-16T08:15:11.520Z,38.99
2022-08-16T08:17:44.148Z,39.37
2022-08-16T08:20:28.755Z,39.73
2022-08-16T08:23:01.995Z,39.62
2022-08-16T08:25:53.642Z,39.46
2022-08-16T08:28:23.995Z,39.76
2022-08-16T08:31:04.308Z,39.43
2022-08-16T08:33:35.531Z,37.97
2022-08-16T08:36:11.523Z,38.14
2022-08-16T08:38:52.375Z,38.18
2022-08-16T08:41:28.467Z,37.85
2022-08-16T08:43:57.496Z,37.40
2022-08-16T08:46:26.179Z,35.48
2022-08-16T08:48:59.886Z,35.78
2022-08-16T08:51:38.373Z,36.79
2022-08-16T08:54:20.479Z,36.17
2022-08-16T08:56:52.382Z,35.74
2022-08-16T08:59:50.837Z,35.46
2022-08-16T09:02:20.109Z,35.75
2022-08-16T09:04:57.250Z,35.70
2022-08-16T09:07:28.196Z,35.44
2022-08-16T09:10:00.946Z,35.18
2022-08-16T09:12:37.204Z,34.68
2022-08-16T09:15:10.034Z,34.92
2022-08-16T09:17:51.830Z,33.85
2022-08-16T09:20:25.539Z,34.05
2022-08-16T09:22:54.479Z,34.00
2022-08-16T09:25:33.931Z,33.90
2022-08-16T09:28:09.493Z,33.67
2022-08-16T09:31:04.997Z,32.70
2022-08-16T09:33:37.050Z,32.94
2022-08-16T09:36:05.508Z,33.36
2022-08-16T09:38:44.029Z,32.20
2022-08-16T09:41:14.916Z,32.51
2022-08-16T09:43:57.977Z,32.39
2022-08-16T09:46:44.496Z,32.40
2022-08-16T09:49:14.281Z,32.41
2022-08-16T09:51:42.537Z,31.57
2022-08-16T09:54:16.604Z,32.15
2022-08-16T09:56:51.619Z,31.33
2022-08-16T09:59:21.191Z,31.24
2022-08-16T10:01:51.970Z,31.08
2022-08-16T10:04:29.868Z,30.40
2022-08-16T10:07:02.430Z,30.72
2022-08-16T10:09:53.794Z,30.79
2022-08-16T10:12:45.494Z,31.04
2022-08-16T10:15:21.962Z,30.79
2022-08-16T10:18:00.770Z,30.98
2022-08-16T10:20:33.966Z,28.50
2022-08-16T10:23:06.962Z,28.68
2022-08-16T10:27:20.022Z,29.37
2022-08-16T10:28:40.310Z,28.92
2022-08-16T10:31:16.979Z,28.07
2022-08-16T10:34:01.540Z,28.49
2022-08-16T10:36:39.132Z,26.34
2022-08-16T10:39:08.508Z,26.93
2022-08-16T10:41:36.111Z,25.51
2022-08-16T10:44:09.666Z,25.87
2022-08-16T10:46:41.737Z,27.14
2022-08-16T10:49:16.794Z,26.14
2022-08-16T10:52:02.364Z,25.79
2022-08-16T10:54:31.545Z,25.61
2022-08-16T10:57:00.769Z,25.23
2022-08-16T10:59:39.222Z,26.26
2022-08-16T11:02:59.079Z,25.38
2022-08-16T11:05:11.523Z,24.98
2022-08-16T11:07:51.464Z,23.99
2022-08-16T11:13:58.138Z,24.42
2022-08-16T11:17:02.262Z,25.62
2022-08-16T11:19:06.206Z,25.92
2022-08-16T11:24:39.205Z,27.52
2022-08-16T11:27:32.508Z,28.89
2022-08-16T11:29:56.690Z,29.42
2022-08-16T11:32:31.847Z,29.93
2022-08-16T11:35:10.936Z,29.74
2022-08-16T11:40:52.602Z,30.07
2022-08-16T11:43:26.395Z,30.37
2022-08-16T11:45:55.171Z,30.32
2022-08-16T11:48:33.548Z,30.05
2022-08-16T11:51:01.567Z,30.01
2022-08-16T11:53:29.356Z,29.94
2022-08-16T11:56:03.079Z,30.47
2022-08-16T11:58:34.001Z,30.76
2022-08-16T12:01:03.314Z,30.97
2022-08-16T12:03:35.236Z,30.88
2022-08-16T12:06:24.945Z,30.74
2022-08-16T12:09:00.892Z,30.62
2022-08-16T12:11:33.227Z,30.54
2022-08-16T12:14:05.015Z,30.87
2022-08-16T12:16:34.597Z,30.21
2022-08-16T12:19:07.404Z,30.50
2022-08-16T12:21:58.569Z,30.22
2022-08-16T12:24:29.370Z,29.96
2022-08-16T12:27:00.182Z,30.31
2022-08-16T12:29:29.422Z,29.98
2022-08-16T12:32:01.382Z,29.55
2022-08-16T12:34:50.578Z,29.51
2022-08-16T12:37:21.866Z,29.60
2022-08-16T12:39:54.934Z,29.88
2022-08-16T12:42:35.491Z,29.83
2022-08-16T12:45:09.571Z,29.79
2022-08-16T12:48:22.205Z,29.84
2022-08-16T12:50:49.255Z,29.98
2022-08-16T12:53:20.642Z,29.81
2022-08-16T12:55:48.190Z,30.15
2022-08-16T12:58:48.733Z,30.88
2022-08-16T13:01:02.838Z,31.63
2022-08-16T13:03:39.645Z,32.61
2022-08-16T13:06:07.872Z,33.31
2022-08-16T13:08:34.620Z,33.28
2022-08-16T13:11:04.589Z,32.63
2022-08-16T13:13:37.132Z,32.99
2022-08-16T13:16:15.356Z,33.21
2022-08-16T13:18:48.412Z,33.31
2022-08-16T13:21:23.451Z,32.46
2022-08-16T13:23:55.475Z,30.70
2022-08-16T13:26:26.223Z,29.78
2022-08-16T13:28:55.853Z,28.42
2022-08-16T13:31:24.111Z,28.41
2022-08-16T13:33:51.941Z,29.68
2022-08-16T13:36:47.847Z,28.86
2022-08-16T13:39:18.058Z,28.00
2022-08-16T13:41:53.522Z,28.53
2022-08-16T13:44:21.733Z,29.41
2022-08-16T13:46:48.579Z,29.82
2022-08-16T13:49:17.573Z,30.18
2022-08-16T13:51:49.926Z,30.27
2022-08-16T13:56:49.476Z,29.61
2022-08-16T13:59:21.144Z,29.35
2022-08-16T14:02:02.641Z,29.50
2022-08-16T14:04:33.445Z,29.78
2022-08-16T14:07:02.039Z,29.83
2022-08-16T14:09:31.972Z,30.20
2022-08-16T14:12:09.863Z,29.77
2022-08-16T14:14:45.376Z,29.83
2022-08-16T14:17:16.531Z,29.89
2022-08-16T14:19:44.806Z,29.47
2022-08-16T14:22:30.449Z,29.62
2022-08-16T14:25:00.415Z,29.74
2022-08-16T14:27:29.577Z,27.53
2022-08-16T14:29:59.959Z,27.42
2022-08-16T14:32:33.105Z,27.52
2022-08-16T14:35:04.632Z,27.51
2022-08-16T14:37:34.972Z,27.50
2022-08-16T14:40:03.357Z,27.68
2022-08-16T14:42:30.422Z,28.25
2022-08-16T14:45:02.810Z,28.64
2022-08-16T14:47:34.945Z,28.87
2022-08-16T14:50:02.635Z,28.51
2022-08-16T14:52:53.998Z,29.57
2022-08-16T14:55:16.537Z,31.20
2022-08-16T14:57:46.040Z,30.20
2022-08-16T15:00:17.996Z,29.83
2022-08-16T15:02:47.471Z,30.18
2022-08-16T15:05:20.424Z,30.41
2022-08-16T15:07:52.908Z,30.83
2022-08-16T15:10:24.381Z,32.95
2022-08-16T15:12:56.214Z,34.64
2022-08-16T15:15:26.563Z,36.12
2022-08-16T15:17:56.566Z,34.56
2022-08-16T15:20:32.312Z,35.63
2022-08-16T15:23:01.559Z,35.34
2022-08-16T15:25:34.456Z,34.61
2022-08-16T15:28:23.516Z,33.10
2022-08-16T15:30:59.806Z,31.70
2022-08-16T15:33:28.095Z,30.17
2022-08-16T15:35:55.218Z,29.76
2022-08-16T15:38:54.863Z,30.39
2022-08-16T15:41:53.905Z,30.65
2022-08-16T15:44:23.777Z,29.67
2022-08-16T15:46:58.447Z,28.95
2022-08-16T15:49:37.849Z,30.00
2022-08-16T15:52:29.031Z,31.77
2022-08-16T15:54:57.794Z,32.46
2022-08-16T15:57:28.051Z,32.80
2022-08-16T16:00:04.908Z,33.09
2022-08-16T16:02:43.875Z,33.32
2022-08-16T16:05:14.066Z,32.91
2022-08-16T16:07:55.510Z,32.48
2022-08-16T16:10:28.359Z,32.07
2022-08-16T16:13:00.483Z,31.84
2022-08-16T16:15:32.380Z,31.84
2022-08-16T16:17:59.138Z,31.74
2022-08-16T16:20:32.920Z,31.37
2022-08-16T16:23:10.393Z,32.14
2022-08-16T16:25:40.012Z,31.91
2022-08-16T16:29:05.012Z,31.66
2022-08-16T16:31:04.777Z,32.05
2022-08-16T16:33:38.426Z,32.17
2022-08-16T16:36:07.770Z,32.44
2022-08-16T16:38:39.153Z,31.80
2022-08-16T16:41:14.422Z,32.09
2022-08-16T16:43:45.102Z,31.80
2022-08-16T16:46:40.616Z,31.70
2022-08-16T16:49:06.825Z,31.85
2022-08-16T16:51:40.375Z,31.92
2022-08-16T16:54:09.329Z,31.70
2022-08-16T16:56:49.533Z,31.48
2022-08-16T16:59:18.251Z,31.46
2022-08-16T17:01:59.900Z,31.40
2022-08-16T17:04:37.466Z,31.64
2022-08-16T17:07:10.657Z,32.01
2022-08-16T17:09:40.146Z,32.24
2022-08-16T17:12:08.906Z,32.36
2022-08-16T17:14:38.504Z,32.80
2022-08-16T17:17:11.704Z,32.78
2022-08-16T17:19:41.779Z,33.16
2022-08-16T17:22:16.065Z,34.11
2022-08-16T17:24:50.369Z,33.61
2022-08-16T17:27:33.126Z,33.83
2022-08-16T17:30:16.082Z,34.44
2022-08-16T17:32:48.789Z,34.59
2022-08-16T17:35:21.490Z,34.82
2022-08-16T17:37:51.442Z,35.26
2022-08-16T17:40:34.001Z,35.71
2022-08-16T17:43:10.294Z,36.24
2022-08-16T17:45:39.347Z,36.60
2022-08-16T17:48:11.145Z,37.40
2022-08-16T17:50:38.763Z,37.90
2022-08-16T17:53:06.621Z,38.10
2022-08-16T17:55:39.091Z,38.98
2022-08-16T17:58:19.799Z,39.33
2022-08-16T18:00:54.841Z,40.17
2022-08-16T18:03:40.812Z,41.30
2022-08-16T18:06:16.716Z,39.50
2022-08-16T18:08:43.653Z,39.56
2022-08-16T18:11:12.089Z,39.59
2022-08-16T18:13:45.119Z,39.83
2022-08-16T18:16:17.083Z,39.70
2022-08-16T18:18:46.348Z,39.51
2022-08-16T18:21:33.172Z,39.73
2022-08-16T18:24:03.120Z,39.63
2022-08-16T18:26:30.079Z,39.46
2022-08-16T18:28:59.853Z,39.19
2022-08-16T18:31:26.760Z,39.00
2022-08-16T18:33:55.860Z,39.27
2022-08-16T18:36:24.499Z,39.20
2022-08-16T18:38:52.285Z,39.30
2022-08-16T18:41:20.161Z,39.21
2022-08-16T18:44:22.346Z,39.24
2022-08-16T18:46:33.978Z,38.95
2022-08-16T18:49:03.028Z,39.36
2022-08-16T18:51:31.677Z,39.41
2022-08-16T18:53:58.475Z,39.71
2022-08-16T18:56:55.080Z,39.57
2022-08-16T18:59:15.110Z,39.75
2022-08-16T19:01:41.897Z,40.18
2022-08-16T19:04:55.963Z,39.92
2022-08-16T19:06:55.887Z,40.30
2022-08-16T19:09:22.996Z,40.47
2022-08-16T19:11:52.175Z,40.29
2022-08-16T19:14:29.979Z,40.10
2022-08-16T19:16:57.460Z,40.53
2022-08-16T19:19:24.219Z,40.48
2022-08-16T19:21:53.643Z,40.71
2022-08-16T19:24:23.237Z,40.89
2022-08-16T19:26:59.167Z,41.28
2022-08-16T19:29:29.094Z,42.12
2022-08-16T19:31:56.263Z,42.60
2022-08-16T19:34:23.204Z,42.47
2022-08-16T19:36:50.107Z,43.26
2022-08-16T19:39:19.900Z,43.40
2022-08-16T19:41:53.182Z,43.70
2022-08-16T19:44:22.668Z,43.17
2022-08-16T19:46:49.867Z,43.59
2022-08-16T19:49:17.224Z,43.72
2022-08-16T19:51:45.465Z,43.97
2022-08-16T19:54:15.067Z,44.03
2022-08-16T19:56:44.087Z,43.86
2022-08-16T19:59:20.439Z,43.52
2022-08-16T20:01:51.179Z,43.80
2022-08-16T20:04:22.840Z,43.75
2022-08-16T20:06:50.867Z,44.00
2022-08-16T20:09:19.590Z,44.08
2022-08-16T20:11:47.849Z,44.20
2022-08-16T20:14:24.324Z,45.18
2022-08-16T20:16:56.943Z,44.62
2022-08-16T20:19:25.146Z,45.15
2022-08-16T20:21:56.592Z,45.43
2022-08-16T20:24:34.784Z,45.11
2022-08-16T20:27:05.330Z,45.74
2022-08-16T20:29:32.129Z,46.01
2022-08-16T20:31:59.043Z,46.25
2022-08-16T20:34:26.280Z,46.33
2022-08-16T20:36:57.387Z,46.39
2022-08-16T20:39:27.530Z,46.67
2022-08-16T20:41:54.361Z,46.47
2022-08-16T20:44:22.955Z,46.55
2022-08-16T20:46:52.876Z,47.01
2022-08-16T20:49:19.561Z,46.92
2022-08-16T20:51:50.758Z,47.19
2022-08-16T20:54:20.442Z,47.12
2022-08-16T20:56:50.562Z,47.49
2022-08-16T20:59:17.580Z,47.73
2022-08-16T21:01:50.356Z,47.70
2022-08-16T21:04:25.286Z,48.09
2022-08-16T21:06:56.254Z,48.43
2022-08-16T21:09:31.342Z,48.44
2022-08-16T21:12:00.986Z,48.49
2022-08-16T21:14:33.916Z,48.57
2022-08-16T21:17:04.261Z,48.66
2022-08-16T21:19:31.163Z,49.05
2022-08-16T21:21:57.892Z,49.57
2022-08-16T21:24:24.901Z,49.78
2022-08-16T21:26:56.009Z,49.98
2022-08-16T21:29:30.596Z,50.16
2022-08-16T21:32:12.799Z,50.11
2022-08-16T21:34:39.947Z,50.73
2022-08-16T21:37:11.520Z,51.09
2022-08-16T21:39:38.868Z,51.03
2022-08-16T21:42:19.117Z,51.43
2022-08-16T21:44:48.798Z,51.31
2022-08-16T21:47:15.582Z,51.71
2022-08-16T21:49:42.873Z,51.56
2022-08-16T21:52:10.139Z,52.42
2022-08-16T21:54:52.719Z,52.10
2022-08-16T21:57:26.365Z,52.45
2022-08-16T22:00:06.024Z,52.48
2022-08-16T22:02:41.644Z,52.69
2022-08-16T22:05:08.609Z,52.94
2022-08-16T22:07:37.779Z,53.21
2022-08-16T22:11:06.347Z,53.14
2022-08-16T22:12:55.011Z,53.02
2022-08-16T22:15:25.587Z,53.37
2022-08-16T22:17:58.307Z,53.58
2022-08-16T22:20:27.729Z,53.86
2022-08-16T22:23:25.060Z,54.73
2022-08-16T22:25:54.678Z,54.20
2022-08-16T22:28:24.349Z,54.80
2022-08-16T22:30:51.715Z,54.86
2022-08-16T22:33:24.758Z,54.94
2022-08-16T22:35:54.241Z,54.93
2022-08-16T22:38:54.700Z,55.14
2022-08-16T22:41:14.573Z,55.39
2022-08-16T22:43:44.887Z,55.30
2022-08-16T22:46:14.113Z,55.75
2022-08-16T22:48:42.783Z,55.67
2022-08-16T22:51:10.143Z,55.63
2022-08-16T22:53:37.360Z,56.11
2022-08-16T22:56:04.841Z,56.30
2022-08-16T22:58:34.183Z,56.35
2022-08-16T23:01:08.415Z,56.50
2022-08-16T23:03:35.754Z,56.81
2022-08-16T23:06:06.063Z,56.76
2022-08-16T23:08:39.272Z,56.97
2022-08-16T23:11:22.739Z,57.26
2022-08-16T23:13:54.807Z,57.97
2022-08-16T23:16:33.397Z,57.74
2022-08-16T23:19:07.541Z,57.91
2022-08-16T23:21:35.044Z,58.02
2022-08-16T23:24:02.683Z,58.24
2022-08-16T23:26:44.722Z,58.38
2022-08-16T23:29:21.967Z,58.24
2022-08-16T23:31:58.430Z,58.49
2022-08-16T23:34:26.846Z,58.72
2022-08-16T23:36:54.091Z,58.55
2022-08-16T23:39:20.976Z,58.47
2022-08-16T23:41:51.131Z,58.82
2022-08-16T23:44:55.470Z,58.59
2022-08-16T23:47:06.140Z,58.82
2022-08-16T23:49:59.358Z,58.86
2022-08-16T23:52:42.336Z,59.17
2022-08-16T23:55:08.975Z,58.85
2022-08-16T23:57:40.414Z,59.01
